createdAt,value
2022-11-19T00:01:40.480Z,61.55
2022-11-19T00:04:11.486Z,61.39
2022-11-19T00:06:42.344Z,61.57
2022-11-19T00:09:14.507Z,61.79
2022-11-19T00:12:02.917Z,61.78
2022-11-19T00:14:34.846Z,61.64
2022-11-19T00:17:05.868Z,61.53
2022-11-19T00:19:36.810Z,61.25
2022-11-19T00:22:07.641Z,61.66
2022-11-19T00:24:39.655Z,61.41
2022-11-19T00:27:10.561Z,61.64
2022-11-19T00:29:41.675Z,61.85
2022-11-19T00:32:12.442Z,61.66
2022-11-19T00:34:43.662Z,61.87
2022-11-19T00:37:14.966Z,61.72
2022-11-19T00:39:45.747Z,61.57
2022-11-19T00:42:16.555Z,61.43
2022-11-19T00:44:47.457Z,61.60
2022-11-19T00:47:18.638Z,61.79
2022-11-19T00:49:49.519Z,61.64
2022-11-19T00:52:20.631Z,61.81
2022-11-19T00:54:51.467Z,61.97
2022-11-19T00:57:22.525Z,61.92
2022-11-19T00:59:53.260Z,61.79
2022-11-19T01:02:24.111Z,62.01
2022-11-19T01:04:54.974Z,61.66
2022-11-19T01:07:25.818Z,61.78
2022-11-19T01:09:56.609Z,61.66
2022-11-19T01:12:27.481Z,61.87
2022-11-19T01:14:58.383Z,61.87
2022-11-19T01:17:29.508Z,61.62
2022-11-19T01:20:00.463Z,61.83
2022-11-19T01:22:31.292Z,61.86
2022-11-19T01:25:02.082Z,61.78
2022-11-19T01:27:34.266Z,61.71
2022-11-19T01:30:05.771Z,61.62
2022-11-19T01:32:36.758Z,61.87
2022-11-19T01:35:09.630Z,61.62
2022-11-19T01:37:40.666Z,61.67
2022-11-19T01:40:13.872Z,61.83
2022-11-19T01:42:50.839Z,61.64
2022-11-19T01:45:33.448Z,61.67
2022-11-19T01:48:08.771Z,61.62
2022-11-19T01:50:44.141Z,61.86
2022-11-19T01:53:15.943Z,61.83
2022-11-19T01:55:48.046Z,61.51
2022-11-19T01:58:24.105Z,61.30
2022-11-19T02:00:54.948Z,61.58
2022-11-19T02:03:26.752Z,61.36
2022-11-19T02:05:58.268Z,61.46
2022-11-19T02:08:44.045Z,61.48
2022-11-19T02:11:38.605Z,61.40
2022-11-19T02:14:29.492Z,61.34
2022-11-19T02:17:10.885Z,61.20
2022-11-19T02:20:17.095Z,61.66
2022-11-19T02:23:17.564Z,61.69
2022-11-19T02:26:15.519Z,61.33
2022-11-19T02:28:52.629Z,61.38
2022-11-19T02:31:27.154Z,61.48
2022-11-19T02:34:02.860Z,61.44
2022-11-19T02:36:40.473Z,61.32
2022-11-19T02:39:17.878Z,61.26
2022-11-19T02:41:54.922Z,61.07
2022-11-19T02:44:48.849Z,61.48
2022-11-19T02:47:23.567Z,61.47
2022-11-19T02:50:00.559Z,61.28
2022-11-19T02:52:31.588Z,61.61
2022-11-19T02:55:02.429Z,61.32
2022-11-19T02:57:33.262Z,61.08
2022-11-19T03:00:23.993Z,61.14
2022-11-19T03:03:17.771Z,61.18
2022-11-19T03:05:53.470Z,61.12
2022-11-19T03:08:24.654Z,60.91
2022-11-19T03:11:05.903Z,61.23
2022-11-19T03:14:06.036Z,61.23
2022-11-19T03:16:44.101Z,60.90
2022-11-19T03:19:24.522Z,60.98
2022-11-19T03:22:00.913Z,61.10
2022-11-19T03:24:35.401Z,61.32
2022-11-19T03:27:13.286Z,61.34
2022-11-19T03:29:49.876Z,61.39
2022-11-19T03:32:27.229Z,61.44
2022-11-19T03:35:05.600Z,61.68
2022-11-19T03:37:39.981Z,61.97
2022-11-19T03:40:15.696Z,62.07
2022-11-19T03:42:50.507Z,61.89
2022-11-19T03:45:26.124Z,62.07
2022-11-19T03:47:58.533Z,61.92
2022-11-19T03:50:34.095Z,61.69
2022-11-19T03:53:05.337Z,62.18
2022-11-19T03:55:40.809Z,61.97
2022-11-19T03:58:11.881Z,61.85
2022-11-19T04:00:42.971Z,61.90
2022-11-19T04:03:13.913Z,62.07
2022-11-19T04:05:44.800Z,62.22
2022-11-19T04:08:15.774Z,61.96
2022-11-19T04:10:46.769Z,62.05
2022-11-19T04:13:17.695Z,62.13
2022-11-19T04:15:48.666Z,62.11
2022-11-19T04:18:19.571Z,62.24
2022-11-19T04:20:50.547Z,61.85
2022-11-19T04:23:21.493Z,61.94
2022-11-19T04:25:52.417Z,62.02
2022-11-19T04:28:23.409Z,61.88
2022-11-19T04:30:54.760Z,61.91
2022-11-19T04:33:25.762Z,61.98
2022-11-19T04:35:56.730Z,62.39
2022-11-19T04:38:27.707Z,62.31
2022-11-19T04:40:58.675Z,62.29
2022-11-19T04:43:29.574Z,62.18
2022-11-19T04:46:00.620Z,61.99
2022-11-19T04:48:31.527Z,62.15
2022-11-19T04:51:02.556Z,62.14
2022-11-19T04:53:33.562Z,62.06
2022-11-19T04:56:05.052Z,62.28
2022-11-19T04:58:36.340Z,62.18
2022-11-19T05:01:07.873Z,62.17
2022-11-19T05:03:38.941Z,62.09
2022-11-19T05:06:10.643Z,62.26
2022-11-19T05:08:41.736Z,62.19
2022-11-19T05:11:12.773Z,62.15
2022-11-19T05:13:43.820Z,62.40
2022-11-19T05:16:14.848Z,62.10
2022-11-19T05:18:46.099Z,62.13
2022-11-19T05:21:17.249Z,62.10
2022-11-19T05:23:48.201Z,62.20
2022-11-19T05:26:19.121Z,62.34
2022-11-19T05:28:50.176Z,62.34
2022-11-19T05:31:21.121Z,62.16
2022-11-19T05:33:52.098Z,61.99
2022-11-19T05:36:23.073Z,62.02
2022-11-19T05:38:54.108Z,61.82
2022-11-19T05:41:25.123Z,61.97
2022-11-19T05:43:56.082Z,62.02
2022-11-19T05:46:27.048Z,62.07
2022-11-19T05:48:58.190Z,62.20
2022-11-19T05:51:29.130Z,62.12
2022-11-19T05:54:00.330Z,62.02
2022-11-19T05:56:31.465Z,62.18
2022-11-19T05:59:02.582Z,61.94
2022-11-19T06:01:33.757Z,61.94
2022-11-19T06:04:04.744Z,61.97
2022-11-19T06:06:35.752Z,62.16
2022-11-19T06:09:07.084Z,62.09
2022-11-19T06:11:50.692Z,62.46
2022-11-19T06:14:24.080Z,62.48
2022-11-19T06:16:57.114Z,62.43
2022-11-19T06:19:28.742Z,62.25
2022-11-19T06:21:59.817Z,62.04
2022-11-19T06:24:31.093Z,62.14
2022-11-19T06:27:02.678Z,62.10
2022-11-19T06:29:33.638Z,61.87
2022-11-19T06:32:04.714Z,62.24
2022-11-19T06:34:35.682Z,62.22
2022-11-19T06:37:06.736Z,62.11
2022-11-19T06:39:37.649Z,62.23
2022-11-19T06:42:22.497Z,62.36
2022-11-19T06:44:53.524Z,62.28
2022-11-19T06:47:24.511Z,62.33
2022-11-19T06:49:55.464Z,62.16
2022-11-19T06:52:26.644Z,62.41
2022-11-19T06:54:57.639Z,62.19
2022-11-19T06:57:28.673Z,62.01
2022-11-19T06:59:59.664Z,62.05
2022-11-19T07:02:30.703Z,62.13
2022-11-19T07:05:01.812Z,62.09
2022-11-19T07:07:34.813Z,62.14
2022-11-19T07:10:07.328Z,62.30
2022-11-19T07:12:38.463Z,62.04
2022-11-19T07:15:11.598Z,62.13
2022-11-19T07:17:42.997Z,62.09
2022-11-19T07:20:14.850Z,62.26
2022-11-19T07:22:46.111Z,62.04
2022-11-19T07:25:17.431Z,62.00
2022-11-19T07:27:48.405Z,62.18
2022-11-19T07:30:20.297Z,62.33
2022-11-19T07:32:51.307Z,62.48
2022-11-19T07:35:23.029Z,62.19
2022-11-19T07:37:54.108Z,62.16
2022-11-19T07:40:25.812Z,62.01
2022-11-19T07:42:56.766Z,62.33
2022-11-19T07:45:28.498Z,62.33
2022-11-19T07:47:59.465Z,62.41
2022-11-19T07:50:30.443Z,62.57
2022-11-19T07:53:02.122Z,62.33
2022-11-19T07:55:33.122Z,62.41
2022-11-19T07:58:04.499Z,62.41
2022-11-19T08:00:35.502Z,62.28
2022-11-19T08:03:07.629Z,62.11
2022-11-19T08:05:42.246Z,61.97
2022-11-19T08:08:13.550Z,62.08
2022-11-19T08:10:44.611Z,62.17
2022-11-19T08:13:15.707Z,62.50
2022-11-19T08:15:47.198Z,62.23
2022-11-19T08:18:18.385Z,62.17
2022-11-19T08:20:49.531Z,62.26
2022-11-19T08:23:23.114Z,62.37
2022-11-19T08:25:54.338Z,62.20
2022-11-19T08:28:25.351Z,62.24
2022-11-19T08:30:56.479Z,62.33
2022-11-19T08:33:27.479Z,62.22
2022-11-19T08:35:58.722Z,62.20
2022-11-19T08:38:32.280Z,62.25
2022-11-19T08:41:23.136Z,62.28
2022-11-19T08:43:54.259Z,62.19
2022-11-19T08:46:25.351Z,62.05
2022-11-19T08:48:56.589Z,62.00
2022-11-19T08:51:27.624Z,61.55
2022-11-19T08:53:58.799Z,61.26
2022-11-19T08:56:29.812Z,60.66
2022-11-19T08:59:03.002Z,60.70
2022-11-19T09:01:34.573Z,60.48
2022-11-19T09:04:06.165Z,60.46
2022-11-19T09:06:37.976Z,60.19
2022-11-19T09:09:09.217Z,60.25
2022-11-19T09:11:42.937Z,59.49
2022-11-19T09:14:14.380Z,59.00
2022-11-19T09:16:45.393Z,58.92
2022-11-19T09:19:16.467Z,58.27
2022-11-19T09:21:47.614Z,57.89
2022-11-19T09:24:18.837Z,57.61
2022-11-19T09:26:52.795Z,57.90
2022-11-19T09:29:24.736Z,58.27
2022-11-19T09:31:55.744Z,58.24
2022-11-19T09:34:26.731Z,58.17
2022-11-19T09:36:58.601Z,58.25
2022-11-19T09:39:29.658Z,58.10
2022-11-19T09:42:12.852Z,58.26
2022-11-19T09:45:04.195Z,58.82
2022-11-19T09:47:49.537Z,58.48
2022-11-19T09:50:23.606Z,58.00
2022-11-19T09:53:02.486Z,57.39
2022-11-19T09:55:36.913Z,56.07
2022-11-19T09:58:13.375Z,55.04
2022-11-19T10:00:46.369Z,53.86
2022-11-19T10:03:21.660Z,52.81
2022-11-19T10:06:00.533Z,52.49
2022-11-19T10:08:45.148Z,52.18
2022-11-19T10:11:32.629Z,52.10
2022-11-19T10:14:12.766Z,52.24
2022-11-19T10:16:56.089Z,52.55
2022-11-19T10:19:40.814Z,53.05
2022-11-19T10:22:16.482Z,52.76
2022-11-19T10:24:55.332Z,52.99
2022-11-19T10:27:33.946Z,52.98
2022-11-19T10:30:13.946Z,53.02
2022-11-19T10:32:51.601Z,53.32
2022-11-19T10:35:28.357Z,53.48
2022-11-19T10:38:02.382Z,53.80
2022-11-19T10:40:41.737Z,53.71
2022-11-19T10:43:23.887Z,54.30
2022-11-19T10:45:56.890Z,53.97
2022-11-19T10:48:38.397Z,54.23
2022-11-19T10:51:19.468Z,53.74
2022-11-19T10:53:51.830Z,54.13
2022-11-19T10:56:28.966Z,53.80
2022-11-19T10:59:07.138Z,53.47
2022-11-19T11:01:42.158Z,53.85
2022-11-19T11:04:19.487Z,54.24
2022-11-19T11:06:55.687Z,54.09
2022-11-19T11:09:35.254Z,53.72
2022-11-19T11:12:32.261Z,53.79
2022-11-19T11:15:18.634Z,54.37
2022-11-19T11:18:01.953Z,54.39
2022-11-19T11:20:34.124Z,54.71
2022-11-19T11:23:11.514Z,54.53
2022-11-19T11:25:52.122Z,54.25
2022-11-19T11:28:26.021Z,54.48
2022-11-19T11:30:59.856Z,54.64
2022-11-19T11:33:35.130Z,54.52
2022-11-19T11:36:11.018Z,54.61
2022-11-19T11:38:49.171Z,54.59
2022-11-19T11:44:27.214Z,54.44
2022-11-19T11:47:02.730Z,54.22
2022-11-19T11:49:37.077Z,54.28
2022-11-19T11:52:19.255Z,54.12
2022-11-19T11:55:06.104Z,54.09
2022-11-19T11:57:51.234Z,54.33
2022-11-19T12:00:40.270Z,54.03
2022-11-19T12:03:13.870Z,53.95
2022-11-19T12:05:55.598Z,54.24
2022-11-19T12:08:44.313Z,54.54
2022-11-19T12:11:21.756Z,54.45
2022-11-19T12:14:00.079Z,54.52
2022-11-19T12:16:41.986Z,54.63
2022-11-19T12:19:25.573Z,54.81
2022-11-19T12:22:04.830Z,54.64
2022-11-19T12:24:54.582Z,54.40
2022-11-19T12:27:35.403Z,54.57
2022-11-19T12:30:13.747Z,54.42
2022-11-19T12:33:01.946Z,54.40
2022-11-19T12:35:51.555Z,54.72
2022-11-19T12:38:40.110Z,54.79
2022-11-19T12:41:30.457Z,54.93
2022-11-19T12:44:03.976Z,55.10
2022-11-19T12:46:48.021Z,54.82
2022-11-19T12:49:41.677Z,54.77
2022-11-19T12:52:31.323Z,54.91
2022-11-19T12:55:11.020Z,55.04
2022-11-19T12:57:53.074Z,55.25
2022-11-19T13:00:26.995Z,55.36
2022-11-19T13:03:15.144Z,55.38
2022-11-19T13:05:52.185Z,55.49
2022-11-19T13:08:29.397Z,55.19
2022-11-19T13:11:11.273Z,55.12
2022-11-19T13:13:46.542Z,54.98
2022-11-19T13:16:20.909Z,54.51
2022-11-19T13:18:55.168Z,54.04
2022-11-19T13:21:33.093Z,54.18
2022-11-19T13:24:14.793Z,54.49
2022-11-19T13:26:46.433Z,54.35
2022-11-19T13:29:31.152Z,54.26
2022-11-19T13:32:10.435Z,54.17
2022-11-19T13:34:49.548Z,54.13
2022-11-19T13:37:23.882Z,54.23
2022-11-19T13:40:01.777Z,54.24
2022-11-19T13:43:17.219Z,54.11
2022-11-19T13:45:45.983Z,54.17
2022-11-19T13:48:26.810Z,54.30
2022-11-19T13:51:02.627Z,54.22
2022-11-19T13:53:39.300Z,54.47
2022-11-19T13:56:15.513Z,54.38
2022-11-19T13:58:50.597Z,54.53
2022-11-19T14:01:40.326Z,54.73
2022-11-19T14:04:28.221Z,54.70
2022-11-19T14:07:20.866Z,54.74
2022-11-19T14:10:04.446Z,54.70
2022-11-19T14:12:53.763Z,54.69
2022-11-19T14:16:04.046Z,55.04
2022-11-19T14:18:57.668Z,54.90
2022-11-19T14:22:09.352Z,55.19
2022-11-19T14:25:14.466Z,55.04
2022-11-19T14:27:46.157Z,55.13
2022-11-19T14:30:22.234Z,55.18
2022-11-19T14:32:54.494Z,55.29
2022-11-19T14:35:45.534Z,55.25
2022-11-19T14:38:41.893Z,55.27
2022-11-19T14:41:28.170Z,55.26
2022-11-19T14:44:14.433Z,54.92
2022-11-19T14:46:48.809Z,55.28
2022-11-19T14:49:31.774Z,55.45
2022-11-19T14:52:04.235Z,55.30
2022-11-19T14:54:43.812Z,55.31
2022-11-19T14:57:29.674Z,55.49
2022-11-19T15:00:05.668Z,55.50
2022-11-19T15:02:40.812Z,55.83
2022-11-19T15:05:20.846Z,56.08
2022-11-19T15:08:12.842Z,55.90
2022-11-19T15:11:04.304Z,55.85
2022-11-19T15:13:36.708Z,56.07
2022-11-19T15:16:13.776Z,55.94
2022-11-19T15:19:23.912Z,56.28
2022-11-19T15:22:43.854Z,56.30
2022-11-19T15:25:31.288Z,56.64
2022-11-19T15:28:17.943Z,56.76
2022-11-19T15:31:05.502Z,56.74
2022-11-19T15:34:11.597Z,56.95
2022-11-19T15:36:45.990Z,56.77
2022-11-19T15:39:27.302Z,56.82
2022-11-19T15:42:02.727Z,56.81
2022-11-19T15:44:43.998Z,57.18
2022-11-19T15:47:19.326Z,57.10
2022-11-19T15:49:50.039Z,57.41
2022-11-19T15:52:27.257Z,57.24
2022-11-19T15:55:13.237Z,57.20
2022-11-19T15:57:47.089Z,57.03
2022-11-19T16:00:23.119Z,57.41
2022-11-19T16:02:56.321Z,57.15
2022-11-19T16:05:30.843Z,57.52
2022-11-19T16:08:08.624Z,57.62
2022-11-19T16:10:43.622Z,57.66
2022-11-19T16:13:43.398Z,58.13
2022-11-19T16:16:40.679Z,57.86
2022-11-19T16:19:13.950Z,57.95
2022-11-19T16:21:48.951Z,58.05
2022-11-19T16:24:39.891Z,57.92
2022-11-19T16:27:20.137Z,57.98
2022-11-19T16:29:52.079Z,58.02
2022-11-19T16:32:26.545Z,58.21
2022-11-19T16:35:11.645Z,58.19
2022-11-19T16:37:43.560Z,58.43
2022-11-19T16:40:18.684Z,58.28
2022-11-19T16:42:53.887Z,58.47
2022-11-19T16:45:27.947Z,58.72
2022-11-19T16:48:00.905Z,58.45
2022-11-19T16:50:36.118Z,58.69
2022-11-19T16:53:09.613Z,58.70
2022-11-19T16:55:51.410Z,58.34
2022-11-19T16:58:29.003Z,58.42
2022-11-19T17:01:01.800Z,58.03
2022-11-19T17:03:39.708Z,58.23
2022-11-19T17:06:25.700Z,58.38
2022-11-19T17:09:01.738Z,58.17
2022-11-19T17:12:10.532Z,58.16
2022-11-19T17:14:54.724Z,58.23
2022-11-19T17:17:44.510Z,58.32
2022-11-19T17:20:53.014Z,58.51
2022-11-19T17:23:26.211Z,58.36
2022-11-19T17:25:59.196Z,58.44
2022-11-19T17:28:36.522Z,57.88
2022-11-19T17:31:16.033Z,58.31
2022-11-19T17:33:56.687Z,58.15
2022-11-19T17:36:27.991Z,58.32
2022-11-19T17:38:59.472Z,58.50
2022-11-19T17:41:50.298Z,57.99
2022-11-19T17:44:39.264Z,58.17
2022-11-19T17:47:23.288Z,58.23
2022-11-19T17:49:55.259Z,58.19
2022-11-19T17:52:28.192Z,58.61
2022-11-19T17:55:03.651Z,58.57
2022-11-19T17:57:34.629Z,58.54
2022-11-19T18:00:10.728Z,58.68
2022-11-19T18:02:42.005Z,58.64
2022-11-19T18:05:20.930Z,58.51
2022-11-19T18:07:52.348Z,58.55
2022-11-19T18:10:23.452Z,58.50
2022-11-19T18:12:54.770Z,58.51
2022-11-19T18:15:26.072Z,58.48
2022-11-19T18:17:57.253Z,58.51
2022-11-19T18:20:28.404Z,58.74
2022-11-19T18:23:00.180Z,58.63
2022-11-19T18:25:31.470Z,58.39
2022-11-19T18:28:02.718Z,58.63
2022-11-19T18:30:34.127Z,58.60
2022-11-19T18:33:05.370Z,58.68
2022-11-19T18:35:36.636Z,58.52
2022-11-19T18:38:08.546Z,58.50
2022-11-19T18:40:39.660Z,58.71
2022-11-19T18:43:29.072Z,58.42
2022-11-19T18:46:00.696Z,58.25
2022-11-19T18:48:31.887Z,58.30
2022-11-19T18:51:02.956Z,58.65
2022-11-19T18:53:34.144Z,58.38
2022-11-19T18:56:05.654Z,58.29
2022-11-19T18:58:37.116Z,58.12
2022-11-19T19:01:08.297Z,58.01
2022-11-19T19:03:39.612Z,58.24
2022-11-19T19:06:12.093Z,58.31
2022-11-19T19:08:43.270Z,58.17
2022-11-19T19:11:32.812Z,58.07
2022-11-19T19:14:04.216Z,58.15
2022-11-19T19:16:35.576Z,58.40
2022-11-19T19:19:06.946Z,58.28
2022-11-19T19:21:38.538Z,58.19
2022-11-19T19:24:10.646Z,58.04
2022-11-19T19:26:41.770Z,58.11
2022-11-19T19:29:13.063Z,57.96
2022-11-19T19:31:44.314Z,57.90
2022-11-19T19:34:15.600Z,58.00
2022-11-19T19:36:52.930Z,57.93
2022-11-19T19:39:24.913Z,57.97
2022-11-19T19:41:57.289Z,58.19
2022-11-19T19:44:28.688Z,58.09
2022-11-19T19:47:00.962Z,58.20
2022-11-19T19:49:36.047Z,58.25
2022-11-19T19:52:10.335Z,58.45
2022-11-19T19:54:43.067Z,58.51
2022-11-19T19:57:15.758Z,58.28
2022-11-19T19:59:47.009Z,58.34
2022-11-19T20:02:18.482Z,58.20
2022-11-19T20:04:49.656Z,57.98
2022-11-19T20:07:21.177Z,58.06
2022-11-19T20:09:52.349Z,58.20
2022-11-19T20:12:23.621Z,57.95
2022-11-19T20:14:55.438Z,57.71
2022-11-19T20:17:26.885Z,57.95
2022-11-19T20:19:58.523Z,57.76
2022-11-19T20:22:30.742Z,57.73
2022-11-19T20:25:05.505Z,57.97
2022-11-19T20:27:36.851Z,57.85
2022-11-19T20:30:10.321Z,58.00
2022-11-19T20:32:41.545Z,57.87
2022-11-19T20:35:12.706Z,57.87
2022-11-19T20:37:43.927Z,58.10
2022-11-19T20:40:15.357Z,57.96
2022-11-19T20:43:04.334Z,57.96
2022-11-19T20:45:35.861Z,57.81
2022-11-19T20:48:07.573Z,57.88
2022-11-19T20:50:38.952Z,58.19
2022-11-19T20:53:10.153Z,58.12
2022-11-19T20:56:03.817Z,57.91
2022-11-19T20:58:33.211Z,57.90
2022-11-19T21:01:06.243Z,58.11
2022-11-19T21:03:37.633Z,58.26
2022-11-19T21:06:09.813Z,58.24
2022-11-19T21:08:40.893Z,58.21
2022-11-19T21:11:15.674Z,58.12
2022-11-19T21:13:47.137Z,57.84
2022-11-19T21:16:21.086Z,58.13
2022-11-19T21:18:52.914Z,58.16
2022-11-19T21:21:25.224Z,58.15
2022-11-19T21:23:56.910Z,58.03
2022-11-19T21:26:29.346Z,58.09
2022-11-19T21:29:01.442Z,57.87
2022-11-19T21:31:41.804Z,58.09
2022-11-19T21:34:14.497Z,58.18
2022-11-19T21:36:47.050Z,57.74
2022-11-19T21:39:19.678Z,58.12
2022-11-19T21:41:51.379Z,58.09
2022-11-19T21:44:22.492Z,58.02
2022-11-19T21:46:53.705Z,58.06
2022-11-19T21:49:24.773Z,58.14
2022-11-19T21:51:56.052Z,58.04
2022-11-19T21:54:27.171Z,58.19
2022-11-19T21:56:58.474Z,58.24
2022-11-19T21:59:29.720Z,58.36
2022-11-19T22:02:00.856Z,58.38
2022-11-19T22:04:32.120Z,58.50
2022-11-19T22:07:03.523Z,58.13
2022-11-19T22:09:34.907Z,58.19
2022-11-19T22:12:06.550Z,58.41
2022-11-19T22:14:37.877Z,58.17
2022-11-19T22:17:09.362Z,58.28
2022-11-19T22:19:40.407Z,58.59
2022-11-19T22:22:11.723Z,58.40
2022-11-19T22:24:43.026Z,58.19
2022-11-19T22:27:14.684Z,58.07
2022-11-19T22:29:45.839Z,58.29
2022-11-19T22:32:17.024Z,58.20
2022-11-19T22:34:48.261Z,58.22
2022-11-19T22:37:19.976Z,58.32
2022-11-19T22:39:51.146Z,58.18
2022-11-19T22:42:22.334Z,58.43
2022-11-19T22:44:53.765Z,58.38
2022-11-19T22:47:24.796Z,58.31
2022-11-19T22:49:56.060Z,58.16
2022-11-19T22:52:27.104Z,58.50
2022-11-19T22:54:58.434Z,58.45
2022-11-19T22:57:29.764Z,58.65
2022-11-19T23:00:01.039Z,58.77
2022-11-19T23:02:32.310Z,58.75
2022-11-19T23:05:03.500Z,58.90
2022-11-19T23:07:34.722Z,58.97
2022-11-19T23:10:07.225Z,58.73
2022-11-19T23:12:55.888Z,58.92
2022-11-19T23:15:28.656Z,58.90
2022-11-19T23:17:59.902Z,58.98
2022-11-19T23:20:31.403Z,59.06
2022-11-19T23:23:02.618Z,58.93
2022-11-19T23:25:33.619Z,59.22
2022-11-19T23:28:04.918Z,59.23
2022-11-19T23:30:36.340Z,59.19
2022-11-19T23:33:07.363Z,59.37
2022-11-19T23:35:38.646Z,59.15
2022-11-19T23:38:10.402Z,59.15
2022-11-19T23:40:41.738Z,59.17
2022-11-19T23:43:12.828Z,59.26
2022-11-19T23:45:43.862Z,59.26
2022-11-19T23:48:17.055Z,59.57
2022-11-19T23:50:48.025Z,59.48
2022-11-19T23:53:19.019Z,59.39
2022-11-19T23:55:50.352Z,59.55
2022-11-19T23:58:21.395Z,59.50
